Time;durP1;ratioP1;P1;durP2;ratioP2;P2;SDS_P1;SDS_P2;PMS_P1;PMS_P2;Temp;Humidity;BMP_temperature;BMP_pressure;BME280_temperature;BME280_humidity;BME280_pressure;Samples;Min_cycle;Max_cycle;Signal;HPM_P1;HPM_P2
2022/11/16 00:01:16;;;;;;;2.40;0.10;;;20.60;59.60;;;;;;5109018;28;20046;-60
2022/11/16 00:03:44;;;;;;;1.55;0.00;;;20.70;59.90;;;;;;5109045;28;20122;-59
2022/11/16 00:06:12;;;;;;;2.63;0.00;;;20.60;60.00;;;;;;5094267;28;20805;-60
2022/11/16 00:08:41;;;;;;;2.42;0.13;;;20.60;60.10;;;;;;5088208;28;20060;-62
2022/11/16 00:11:10;;;;;;;4.05;0.10;;;20.60;60.10;;;;;;5088215;28;20040;-60
2022/11/16 00:13:38;;;;;;;0.90;0.10;;;20.60;60.20;;;;;;5088509;28;20127;-61
2022/11/16 00:16:06;;;;;;;0.95;0.00;;;20.60;60.20;;;;;;5088508;28;20049;-60
2022/11/16 00:18:35;;;;;;;1.00;0.10;;;20.60;60.20;;;;;;5088316;28;20054;-59
2022/11/16 00:21:04;;;;;;;1.90;0.40;;;20.60;60.20;;;;;;5088164;28;20048;-60
2022/11/16 00:23:32;;;;;;;2.33;0.10;;;20.50;60.10;;;;;;5088062;28;20047;-61
2022/11/16 00:26:03;;;;;;;1.05;0.10;;;20.50;60.10;;;;;;5087816;28;20937;-60
2022/11/16 00:28:30;;;;;;;4.75;0.38;;;20.50;60.10;;;;;;5069868;28;20044;-60
2022/11/16 00:31:01;;;;;;;0.32;0.30;;;20.50;60.10;;;;;;5087267;28;20039;-60
2022/11/16 00:33:28;;;;;;;2.40;0.10;;;20.50;60.10;;;;;;5070100;28;20075;-60
2022/11/16 00:35:56;;;;;;;0.95;0.10;;;20.40;60.50;;;;;;5079645;28;20144;-60
2022/11/16 00:38:24;;;;;;;1.08;0.15;;;20.40;60.00;;;;;;5087809;28;20051;-60
2022/11/16 00:40:51;;;;;;;2.17;0.20;;;20.40;60.00;;;;;;5087540;28;20036;-60
2022/11/16 00:43:18;;;;;;;2.15;0.10;;;20.40;60.00;;;;;;5069254;28;20052;-60
2022/11/16 00:45:45;;;;;;;1.10;0.10;;;20.40;60.00;;;;;;5069378;28;20056;-61
2022/11/16 00:48:12;;;;;;;2.15;0.20;;;20.40;59.90;;;;;;5087522;28;20147;-60
2022/11/16 00:50:40;;;;;;;0.88;0.10;;;20.40;60.50;;;;;;5087716;28;20041;-60
2022/11/16 00:53:13;;;;;;;2.10;0.93;;;20.30;59.90;;;;;;5069456;28;20135;-60
2022/11/16 00:55:40;;;;;;;2.60;0.10;;;20.30;59.80;;;;;;5087828;28;20092;-61
2022/11/16 00:58:08;;;;;;;1.27;0.10;;;20.30;60.00;;;;;;5069992;28;20810;-61
2022/11/16 01:00:36;;;;;;;0.17;0.00;;;20.30;59.90;;;;;;5069682;28;20877;-59
2022/11/16 01:03:03;;;;;;;2.10;0.10;;;20.30;60.00;;;;;;5069606;28;20056;-61
2022/11/16 01:05:30;;;;;;;3.00;0.30;;;20.30;59.90;;;;;;5069494;28;20567;-60
2022/11/16 01:07:57;;;;;;;0.57;0.10;;;20.30;59.90;;;;;;5087161;28;20047;-61
2022/11/16 01:10:27;;;;;;;1.85;0.20;;;20.30;60.50;;;;;;5068877;28;20044;-61
2022/11/16 01:12:54;;;;;;;0.85;0.10;;;20.30;59.80;;;;;;5087486;28;20051;-60
2022/11/16 01:15:24;;;;;;;1.73;0.10;;;20.20;59.80;;;;;;5068968;28;20039;-60
2022/11/16 01:17:53;;;;;;;1.30;0.10;;;20.20;59.80;;;;;;5052533;28;20055;-60
2022/11/16 01:20:22;;;;;;;5.90;0.45;;;20.20;59.80;;;;;;5062906;28;20036;-59
2022/11/16 01:22:49;;;;;;;0.20;0.10;;;20.20;59.70;;;;;;5066934;28;20663;-58
2022/11/16 01:25:17;;;;;;;1.00;0.57;;;20.20;59.70;;;;;;5048977;28;20118;-58
2022/11/16 01:27:45;;;;;;;1.20;0.10;;;20.20;59.80;;;;;;5065785;28;20048;-59
2022/11/16 01:30:19;;;;;;;1.70;0.10;;;20.20;59.80;;;;;;5048959;28;20141;-60
2022/11/16 01:32:57;;;;;;;1.63;0.10;;;20.20;59.80;;;;;;5049064;28;20048;-60
2022/11/16 01:35:24;;;;;;;1.23;0.10;;;20.10;59.70;;;;;;5057262;28;20093;-61
2022/11/16 01:37:52;;;;;;;2.78;0.50;;;20.10;59.50;;;;;;5068970;28;20035;-60
2022/11/16 01:40:19;;;;;;;1.42;0.20;;;20.20;59.60;;;;;;5087470;28;20070;-60
2022/11/16 01:42:47;;;;;;;3.42;0.17;;;20.10;59.40;;;;;;5078482;28;20063;-59
2022/11/16 01:45:22;;;;;;;1.95;0.10;;;20.10;59.50;;;;;;5093201;28;20147;-60
2022/11/16 01:47:53;;;;;;;1.58;0.10;;;20.20;59.50;;;;;;5111453;28;20540;-59
2022/11/16 01:50:23;;;;;;;0.57;0.13;;;20.10;59.50;;;;;;5093260;28;20036;-59
2022/11/16 01:52:56;;;;;;;3.60;0.10;;;20.10;59.50;;;;;;5076525;28;20119;-56
2022/11/16 01:55:26;;;;;;;4.53;0.10;;;20.10;59.50;;;;;;5089698;28;20036;-58
2022/11/16 01:58:21;;;;;;;2.15;0.38;;;20.10;59.60;;;;;;5082537;28;20067;-61
2022/11/16 02:00:53;;;;;;;0.40;0.10;;;20.10;59.70;;;;;;5072942;28;20538;-59
2022/11/16 02:03:38;;;;;;;2.97;0.10;;;20.10;59.50;;;;;;5072625;28;20131;-56
2022/11/16 02:06:20;;;;;;;0.90;0.10;;;20.10;59.60;;;;;;5072447;28;20109;-57
2022/11/16 02:12:05;;;;;;;0.73;0.10;;;20.10;59.50;;;;;;5065781;28;20044;-57
2022/11/16 02:14:51;;;;;;;1.20;0.10;;;20.00;59.60;;;;;;5072317;28;20365;-57
2022/11/16 02:17:31;;;;;;;1.25;0.10;;;20.00;59.40;;;;;;5072594;28;20048;-58
2022/11/16 02:20:25;;;;;;;1.27;0.00;;;20.00;59.40;;;;;;5090621;28;20051;-58
2022/11/16 02:23:11;;;;;;;1.83;0.10;;;20.00;59.40;;;;;;5072035;28;20048;-58
2022/11/16 02:25:49;;;;;;;1.80;0.10;;;20.00;59.40;;;;;;5072318;28;20048;-57
2022/11/16 02:28:33;;;;;;;0.73;0.00;;;20.00;59.50;;;;;;5089344;28;20393;-60
2022/11/16 02:31:05;;;;;;;0.98;0.10;;;20.00;59.30;;;;;;5090289;28;20044;-60
2022/11/16 02:33:37;;;;;;;3.30;0.13;;;19.90;59.40;;;;;;5090205;28;20143;-60
2022/11/16 02:36:07;;;;;;;2.70;0.05;;;20.00;59.40;;;;;;5071573;28;20087;-60
2022/11/16 02:38:38;;;;;;;0.38;0.13;;;19.90;59.30;;;;;;5072390;28;20064;-61
2022/11/16 02:41:11;;;;;;;0.73;0.03;;;19.90;59.20;;;;;;5090278;28;20066;-61
2022/11/16 02:43:42;;;;;;;2.53;0.10;;;19.90;59.20;;;;;;5071943;28;20080;-60
2022/11/16 02:46:16;;;;;;;1.35;0.10;;;19.90;59.20;;;;;;5088866;28;20051;-60
2022/11/16 02:48:49;;;;;;;2.47;0.88;;;19.90;59.00;;;;;;5071538;28;20075;-60
2022/11/16 02:51:18;;;;;;;0.28;0.00;;;19.90;59.00;;;;;;5071045;28;20046;-60
2022/11/16 02:53:59;;;;;;;1.55;0.15;;;19.90;59.10;;;;;;5071575;28;20068;-60
2022/11/16 02:56:28;;;;;;;1.10;0.10;;;19.90;59.00;;;;;;5071271;28;20063;-60
2022/11/16 02:58:55;;;;;;;1.73;1.17;;;19.90;59.00;;;;;;5069903;28;20123;-60
2022/11/16 03:01:31;;;;;;;4.18;0.10;;;19.80;58.90;;;;;;5051591;28;20051;-58
2022/11/16 03:04:03;;;;;;;1.27;0.10;;;19.90;58.80;;;;;;5069534;28;20048;-60
2022/11/16 03:06:33;;;;;;;0.50;0.10;;;19.90;58.80;;;;;;5086197;28;20041;-60
2022/11/16 03:09:04;;;;;;;2.60;0.25;;;19.80;58.80;;;;;;5071405;28;20067;-59
2022/11/16 03:14:25;;;;;;;2.17;1.33;;;19.80;58.80;;;;;;5071630;28;20516;-58
2022/11/16 03:16:56;;;;;;;1.00;0.00;;;19.80;58.70;;;;;;5071824;28;20048;-59
2022/11/16 03:19:32;;;;;;;3.92;0.10;;;19.80;58.70;;;;;;5089224;28;20131;-60
2022/11/16 03:22:07;;;;;;;1.67;0.08;;;19.80;58.60;;;;;;5071599;28;20048;-60
2022/11/16 03:24:37;;;;;;;0.60;0.00;;;19.80;58.70;;;;;;5054719;28;20048;-56
2022/11/16 03:27:09;;;;;;;0.75;0.20;;;19.80;58.70;;;;;;5071107;28;20067;-58
2022/11/16 03:29:42;;;;;;;1.25;0.05;;;19.80;58.60;;;;;;5070972;28;20059;-60
2022/11/16 03:32:18;;;;;;;1.23;0.20;;;19.80;58.70;;;;;;5070776;28;20055;-60
2022/11/16 03:34:54;;;;;;;0.60;0.00;;;19.80;58.70;;;;;;5070544;28;20048;-62
2022/11/16 03:37:24;;;;;;;0.55;0.20;;;19.80;58.60;;;;;;5070960;28;20109;-60
2022/11/16 03:39:53;;;;;;;1.67;0.20;;;19.80;58.60;;;;;;5089367;28;20040;-59
2022/11/16 03:42:26;;;;;;;0.30;0.10;;;19.80;58.60;;;;;;5088839;28;20048;-59
2022/11/16 03:44:54;;;;;;;0.95;0.05;;;19.80;58.50;;;;;;5088001;28;20043;-59
2022/11/16 03:47:23;;;;;;;1.48;0.17;;;19.80;58.50;;;;;;5068661;28;20127;-59
2022/11/16 03:49:50;;;;;;;1.40;0.10;;;19.80;58.40;;;;;;5050155;28;20535;-59
2022/11/16 03:52:19;;;;;;;1.00;0.00;;;19.80;58.40;;;;;;5061903;28;20454;-58
2022/11/16 03:54:48;;;;;;;2.38;0.10;;;19.70;58.30;;;;;;5070487;28;20131;-58
2022/11/16 03:57:17;;;;;;;1.08;0.10;;;19.80;58.30;;;;;;5088987;28;20472;-57
2022/11/16 03:59:46;;;;;;;1.52;0.00;;;19.70;58.30;;;;;;5088786;28;20067;-59
2022/11/16 04:02:13;;;;;;;1.40;0.10;;;19.80;58.40;;;;;;5070438;28;20488;-60
2022/11/16 04:24:14;;;;;;;5.10;0.10;;;19.60;58.40;;;;;;5070008;28;20032;-59
2022/11/16 04:29:29;;;;;;;1.02;0.10;;;19.60;58.40;;;;;;5069579;28;20527;-58
2022/11/16 04:40:12;;;;;;;2.63;0.20;;;19.60;58.40;;;;;;5069638;28;20512;-59
2022/11/16 04:42:39;;;;;;;1.58;0.10;;;19.60;58.40;;;;;;5069381;28;20044;-60
2022/11/16 04:47:53;;;;;;;2.60;0.10;;;19.60;58.40;;;;;;5069693;28;20051;-59
2022/11/16 04:50:24;;;;;;;1.88;0.17;;;19.60;58.40;;;;;;5069921;28;20143;-59
2022/11/16 04:52:53;;;;;;;1.38;0.10;;;19.60;58.40;;;;;;5070058;28;20123;-60
2022/11/16 04:55:20;;;;;;;0.57;0.10;;;19.60;58.40;;;;;;5088330;28;20416;-60
2022/11/16 04:57:49;;;;;;;0.73;0.08;;;19.60;58.30;;;;;;5070164;28;20604;-60
2022/11/16 05:00:17;;;;;;;0.82;0.10;;;19.60;58.30;;;;;;5070098;28;20043;-60
2022/11/16 05:02:45;;;;;;;0.30;0.22;;;19.60;58.30;;;;;;5088516;28;20210;-60
2022/11/16 05:05:12;;;;;;;1.10;0.10;;;19.60;58.30;;;;;;5089674;28;20043;-60
2022/11/16 05:07:43;;;;;;;1.50;0.13;;;19.60;58.20;;;;;;5089179;28;20043;-60
2022/11/16 05:10:17;;;;;;;0.20;0.10;;;19.60;58.20;;;;;;5070620;28;20058;-60
2022/11/16 05:12:45;;;;;;;1.67;0.47;;;19.60;58.30;;;;;;5070492;28;20052;-59
2022/11/16 05:15:12;;;;;;;0.57;0.00;;;19.60;58.20;;;;;;5088688;28;20032;-59
2022/11/16 05:17:39;;;;;;;4.40;0.10;;;19.60;58.20;;;;;;5069153;28;20043;-60
2022/11/16 05:23:02;;;;;;;1.08;0.05;;;19.60;58.20;;;;;;5068300;28;20138;-57
2022/11/16 05:25:34;;;;;;;1.98;0.20;;;19.60;58.30;;;;;;5068085;28;20063;-59
2022/11/16 05:28:02;;;;;;;1.42;0.17;;;19.60;58.40;;;;;;5058012;28;20773;-57
2022/11/16 05:30:32;;;;;;;2.92;0.10;;;19.50;58.30;;;;;;5068598;28;20040;-54
2022/11/16 05:33:00;;;;;;;2.20;0.98;;;19.60;58.50;;;;;;5060496;28;20048;-57
2022/11/16 05:35:31;;;;;;;0.55;0.05;;;19.60;58.50;;;;;;5058288;28;20071;-57
2022/11/16 05:37:58;;;;;;;0.65;0.10;;;19.60;58.60;;;;;;5081110;28;20069;-55
2022/11/16 05:40:25;;;;;;;0.38;0.10;;;19.60;58.50;;;;;;5107993;28;20035;-59
2022/11/16 05:42:59;;;;;;;1.90;0.10;;;19.60;58.40;;;;;;5089603;28;20048;-57
2022/11/16 05:45:29;;;;;;;0.10;0.10;;;19.60;58.40;;;;;;5088810;28;20539;-59
2022/11/16 05:47:59;;;;;;;1.60;0.22;;;19.60;58.50;;;;;;5089402;28;20122;-58
2022/11/16 05:50:27;;;;;;;3.15;0.30;;;19.60;58.50;;;;;;5089767;28;20040;-58
2022/11/16 05:53:09;;;;;;;1.52;0.10;;;19.60;58.60;;;;;;5070549;28;20080;-57
2022/11/16 05:55:38;;;;;;;4.68;0.13;;;19.50;58.50;;;;;;5069213;28;20127;-60
2022/11/16 05:58:06;;;;;;;1.25;0.10;;;19.60;58.60;;;;;;5087419;28;20076;-59
2022/11/16 06:00:34;;;;;;;2.83;0.75;;;19.60;58.60;;;;;;5068860;28;20497;-59
2022/11/16 06:03:01;;;;;;;4.10;0.30;;;19.60;58.60;;;;;;5069170;28;20040;-57
2022/11/16 06:05:33;;;;;;;2.30;0.10;;;19.60;58.70;;;;;;5068846;28;20559;-54
2022/11/16 06:08:00;;;;;;;2.15;0.25;;;19.60;58.80;;;;;;5068922;28;20599;-56
2022/11/16 06:10:28;;;;;;;2.85;0.10;;;19.60;58.70;;;;;;5067407;28;20099;-60
2022/11/16 06:12:55;;;;;;;0.93;0.77;;;19.60;58.70;;;;;;5069132;28;20074;-58
2022/11/16 06:15:24;;;;;;;1.83;0.10;;;19.60;58.70;;;;;;5068938;28;20534;-59
2022/11/16 06:17:52;;;;;;;4.47;0.35;;;19.60;58.70;;;;;;5069153;28;20355;-59
2022/11/16 06:20:20;;;;;;;4.43;0.10;;;19.60;58.60;;;;;;5069281;28;20127;-63
2022/11/16 06:22:48;;;;;;;4.13;0.45;;;19.60;58.50;;;;;;5080268;28;20074;-49
2022/11/16 06:25:15;;;;;;;2.60;0.30;;;19.60;58.90;;;;;;5068695;28;20044;-49
2022/11/16 06:27:44;;;;;;;3.50;0.95;;;19.60;59.10;;;;;;5068844;28;20046;-54
2022/11/16 06:30:14;;;;;;;2.38;0.57;;;19.60;59.10;;;;;;5072097;28;20131;-56
2022/11/16 06:32:43;;;;;;;5.95;0.85;;;19.60;59.20;;;;;;5090667;28;20495;-53
2022/11/16 06:35:11;;;;;;;2.70;0.50;;;19.70;59.20;;;;;;5072088;28;20047;-57
2022/11/16 06:37:39;;;;;;;7.07;0.82;;;19.70;59.20;;;;;;5065563;28;20129;-55
2022/11/16 06:40:09;;;;;;;9.00;0.70;;;19.70;59.20;;;;;;5079300;28;20040;-51
2022/11/16 06:42:40;;;;;;;3.60;0.25;;;19.70;59.30;;;;;;5072202;28;20036;-52
2022/11/16 06:45:10;;;;;;;3.17;0.10;;;19.80;59.20;;;;;;5089288;28;20043;-55
2022/11/16 06:47:40;;;;;;;2.10;0.10;;;19.80;59.20;;;;;;5090364;28;20059;-60
2022/11/16 06:50:10;;;;;;;4.63;0.13;;;19.80;59.20;;;;;;5072080;28;20051;-59
2022/11/16 06:52:37;;;;;;;2.53;0.15;;;19.80;59.50;;;;;;5090171;28;20048;-58
2022/11/16 06:55:04;;;;;;;5.68;0.43;;;19.80;59.40;;;;;;5071939;28;20048;-59
2022/11/16 06:57:34;;;;;;;21.85;1.05;;;19.90;59.50;;;;;;5071556;28;20093;-60
2022/11/16 07:00:04;;;;;;;9.48;0.77;;;19.90;59.90;;;;;;5064525;28;20102;-60
2022/11/16 07:02:33;;;;;;;11.55;1.02;;;20.00;60.80;;;;;;5052058;28;20049;-55
2022/11/16 07:05:01;;;;;;;13.25;1.48;;;20.00;61.20;;;;;;5056512;28;20044;-53
2022/11/16 07:07:29;;;;;;;6.72;1.15;;;20.00;61.50;;;;;;5089995;28;20060;-55
2022/11/16 07:09:56;;;;;;;10.07;2.03;;;20.00;61.70;;;;;;5071586;28;20530;-52
2022/11/16 07:12:25;;;;;;;9.88;0.88;;;20.10;61.70;;;;;;5071539;28;20043;-54
2022/11/16 07:14:54;;;;;;;5.50;0.82;;;20.10;61.70;;;;;;5071684;28;20062;-54
2022/11/16 07:17:22;;;;;;;2.85;1.02;;;20.10;61.70;;;;;;5071583;28;20108;-52
2022/11/16 07:19:49;;;;;;;9.20;0.57;;;20.10;61.70;;;;;;5071513;28;20044;-57
2022/11/16 07:22:16;;;;;;;3.28;0.40;;;20.10;61.50;;;;;;5071341;28;20595;-52
2022/11/16 07:24:45;;;;;;;5.20;0.57;;;20.10;61.30;;;;;;5071177;28;20129;-55
2022/11/16 07:27:12;;;;;;;4.88;2.15;;;20.10;61.10;;;;;;5089637;28;20438;-52
2022/11/16 07:29:43;;;;;;;2.72;0.30;;;20.10;60.90;;;;;;5071646;28;20233;-56
2022/11/16 07:32:31;;;;;;;8.15;0.90;;;20.10;61.20;;;;;;5089180;28;20142;-58
2022/11/16 07:35:06;;;;;;;6.93;1.15;;;20.10;60.50;;;;;;5071777;28;20047;-55
2022/11/16 07:37:33;;;;;;;10.43;0.60;;;20.10;60.40;;;;;;5088126;28;20052;-56
2022/11/16 07:40:02;;;;;;;9.90;0.80;;;20.10;60.30;;;;;;5103952;28;20130;-52
2022/11/16 07:42:30;;;;;;;3.30;0.63;;;20.10;60.00;;;;;;5091172;28;20507;-56
2022/11/16 07:45:07;;;;;;;;;;;20.10;59.70;;;;;;5091997;28;20097;-52
2022/11/16 07:47:38;;;;;;;2.60;1.90;;;20.10;59.80;;;;;;5091370;28;19930;-52
2022/11/16 07:50:09;;;;;;;6.15;0.38;;;20.10;59.80;;;;;;5052016;28;20056;-51
2022/11/16 07:52:36;;;;;;;3.97;0.73;;;20.10;59.60;;;;;;5064888;28;20051;-52
2022/11/16 07:55:11;;;;;;;3.40;0.30;;;20.10;59.40;;;;;;5053992;28;20152;-53
2022/11/16 07:57:38;;;;;;;4.93;0.40;;;20.10;59.40;;;;;;5071336;28;20044;-53
2022/11/16 08:00:09;;;;;;;1.85;0.43;;;20.10;59.20;;;;;;5071299;28;20036;-54
2022/11/16 08:02:47;;;;;;;2.65;0.20;;;20.10;59.00;;;;;;5071044;28;20222;-55
2022/11/16 08:05:18;;;;;;;4.28;0.47;;;20.00;59.10;;;;;;5071152;28;20070;-54
2022/11/16 08:07:46;;;;;;;1.58;0.30;;;20.00;58.80;;;;;;5070972;28;20071;-51
2022/11/16 08:10:14;;;;;;;2.60;0.17;;;20.00;59.00;;;;;;5088462;28;20113;-52
2022/11/16 08:12:42;;;;;;;2.40;0.40;;;20.10;58.80;;;;;;5070471;28;20126;-52
2022/11/16 08:15:10;;;;;;;6.47;0.38;;;20.10;58.70;;;;;;5089173;28;20423;-52
2022/11/16 08:17:37;;;;;;;1.30;0.57;;;20.00;58.60;;;;;;5070677;28;20111;-52
2022/11/16 08:20:07;;;;;;;1.85;0.20;;;20.00;58.60;;;;;;5070633;28;20040;-56
2022/11/16 08:22:35;;;;;;;1.92;0.20;;;20.10;58.70;;;;;;5070621;28;20043;-52
2022/11/16 08:25:02;;;;;;;2.05;0.20;;;20.00;58.40;;;;;;5070091;28;20044;-53
2022/11/16 08:27:31;;;;;;;4.55;1.95;;;20.00;58.40;;;;;;5088943;28;20121;-55
2022/11/16 08:29:58;;;;;;;3.72;0.30;;;20.00;58.40;;;;;;5088691;28;20052;-55
2022/11/16 08:32:28;;;;;;;2.95;0.30;;;20.00;58.40;;;;;;5070355;28;20051;-55
2022/11/16 08:34:56;;;;;;;4.90;0.68;;;20.00;58.30;;;;;;5070337;28;20527;-56
2022/11/16 08:37:24;;;;;;;3.80;0.10;;;20.00;58.20;;;;;;5081954;28;20121;-53
2022/11/16 08:39:52;;;;;;;1.30;0.10;;;20.00;58.20;;;;;;5049871;28;20037;-51
2022/11/16 08:42:20;;;;;;;0.88;0.10;;;20.00;58.10;;;;;;5068443;28;20056;-55
2022/11/16 08:44:50;;;;;;;2.10;0.40;;;20.00;58.00;;;;;;5068120;28;20041;-51
2022/11/16 08:47:19;;;;;;;3.83;1.75;;;20.00;58.10;;;;;;5050385;28;20086;-52
2022/11/16 08:49:50;;;;;;;1.58;0.13;;;20.00;58.00;;;;;;5050368;28;20051;-55
2022/11/16 08:52:19;;;;;;;1.88;0.10;;;20.00;57.90;;;;;;5076271;28;20048;-56
2022/11/16 08:54:47;;;;;;;1.20;0.20;;;20.00;57.80;;;;;;5049623;28;20052;-53
2022/11/16 08:57:16;;;;;;;0.77;0.10;;;20.00;57.70;;;;;;5050141;28;20098;-54
2022/11/16 08:59:44;;;;;;;1.33;0.40;;;20.00;57.70;;;;;;5050218;28;20040;-55
2022/11/16 09:02:15;;;;;;;3.15;0.10;;;20.00;57.60;;;;;;5050243;28;20052;-54
2022/11/16 09:04:42;;;;;;;2.17;0.20;;;20.00;57.50;;;;;;5070000;28;20040;-56
2022/11/16 09:07:10;;;;;;;5.72;0.10;;;20.00;57.50;;;;;;5070200;28;20400;-53
2022/11/16 09:09:37;;;;;;;1.63;0.20;;;20.00;57.50;;;;;;5087884;28;20151;-52
2022/11/16 09:12:04;;;;;;;3.75;0.50;;;20.00;57.40;;;;;;5088158;28;20047;-55
2022/11/16 09:14:31;;;;;;;2.50;0.55;;;20.00;57.40;;;;;;5087634;28;20545;-54
2022/11/16 09:16:58;;;;;;;4.50;0.75;;;20.00;57.30;;;;;;5088154;28;20071;-54
2022/11/16 09:19:27;;;;;;;1.55;0.10;;;20.00;57.30;;;;;;5087520;28;20119;-54
2022/11/16 09:21:54;;;;;;;3.53;0.20;;;20.00;57.30;;;;;;5087851;28;20044;-54
2022/11/16 09:24:21;;;;;;;1.15;0.55;;;20.00;57.20;;;;;;5088055;28;20560;-54
2022/11/16 09:26:48;;;;;;;2.33;0.20;;;20.10;57.20;;;;;;5087396;28;20135;-54
2022/11/16 09:29:16;;;;;;;1.45;0.55;;;20.10;57.20;;;;;;5087908;28;20048;-53
2022/11/16 09:31:44;;;;;;;1.80;0.10;;;20.10;57.20;;;;;;5069764;28;20044;-55
2022/11/16 09:34:11;;;;;;;1.75;0.30;;;20.00;57.10;;;;;;5087929;28;20126;-56
2022/11/16 09:36:39;;;;;;;3.58;1.13;;;20.10;57.10;;;;;;5087730;28;20047;-56
2022/11/16 09:39:06;;;;;;;1.08;0.15;;;20.10;57.10;;;;;;5089127;28;20460;-56
2022/11/16 09:41:46;;;;;;;3.90;0.25;;;20.10;57.00;;;;;;5107652;28;20062;-50
2022/11/16 09:44:25;;;;;;;0.85;0.10;;;20.10;57.10;;;;;;5108228;28;20040;-56
2022/11/16 09:46:56;;;;;;;4.97;0.10;;;20.10;57.00;;;;;;5108133;28;20040;-57
2022/11/16 09:49:28;;;;;;;3.90;0.63;;;20.10;57.50;;;;;;5108021;28;20044;-53
2022/11/16 09:52:00;;;;;;;4.10;0.28;;;20.10;56.90;;;;;;5099283;28;20138;-55
2022/11/16 09:54:31;;;;;;;2.72;0.10;;;20.10;56.80;;;;;;5087879;28;20573;-53
2022/11/16 09:57:00;;;;;;;0.98;0.57;;;20.10;56.90;;;;;;5087679;28;20131;-56
2022/11/16 09:59:31;;;;;;;1.95;0.60;;;20.10;56.80;;;;;;5087798;28;20401;-56
2022/11/16 10:02:02;;;;;;;1.20;0.10;;;20.10;56.70;;;;;;5087794;28;20056;-57
2022/11/16 10:04:37;;;;;;;2.70;1.17;;;20.20;56.70;;;;;;5091069;28;20075;-54
2022/11/16 10:07:12;;;;;;;1.95;0.28;;;20.20;56.70;;;;;;5091196;28;20040;-54
2022/11/16 10:09:39;;;;;;;1.95;0.43;;;20.20;56.60;;;;;;5091487;28;20586;-54
2022/11/16 10:12:20;;;;;;;1.80;0.45;;;20.20;56.80;;;;;;5091331;28;20044;-53
2022/11/16 10:15:32;;;;;;;1.65;0.25;;;20.20;56.40;;;;;;5081544;28;20131;-53
2022/11/16 10:18:08;;;;;;;0.80;0.10;;;20.20;56.50;;;;;;5071148;28;20068;-53
2022/11/16 10:20:53;;;;;;;2.67;0.20;;;20.20;56.60;;;;;;5070860;28;20490;-56
2022/11/16 10:23:36;;;;;;;1.65;0.20;;;20.20;56.50;;;;;;5070819;28;20046;-51
2022/11/16 10:26:15;;;;;;;0.52;0.08;;;20.20;56.40;;;;;;5070990;28;20076;-55
2022/11/16 10:29:00;;;;;;;3.10;0.85;;;20.20;56.60;;;;;;5070824;28;20047;-53
2022/11/16 10:31:38;;;;;;;0.32;0.10;;;20.30;56.80;;;;;;5071061;28;20083;-57
2022/11/16 10:34:08;;;;;;;1.85;0.13;;;20.30;56.80;;;;;;5070906;28;20044;-54
2022/11/16 10:36:37;;;;;;;1.85;0.10;;;20.30;56.80;;;;;;5088406;28;20077;-56
2022/11/16 10:39:13;;;;;;;0.73;0.10;;;20.30;56.80;;;;;;5091072;28;20454;-55
2022/11/16 10:41:43;;;;;;;0.30;0.10;;;20.30;56.70;;;;;;5090826;28;20051;-54
2022/11/16 10:44:18;;;;;;;1.08;0.20;;;20.40;56.70;;;;;;5090711;28;20523;-55
2022/11/16 10:46:53;;;;;;;1.27;0.17;;;20.40;57.30;;;;;;5090950;28;20127;-56
2022/11/16 10:49:26;;;;;;;2.10;0.00;;;20.40;56.50;;;;;;5090505;28;20150;-52
2022/11/16 10:51:53;;;;;;;0.70;0.00;;;20.40;56.30;;;;;;5090553;28;20098;-56
2022/11/16 10:54:21;;;;;;;1.77;0.10;;;20.40;56.10;;;;;;5090623;28;20583;-53
2022/11/16 10:56:51;;;;;;;3.05;0.10;;;20.40;56.00;;;;;;5090573;28;20047;-55
2022/11/16 10:59:19;;;;;;;0.73;0.10;;;20.50;56.10;;;;;;5071876;28;20555;-53
2022/11/16 11:01:49;;;;;;;1.90;0.13;;;20.50;56.10;;;;;;5089260;28;20044;-54
2022/11/16 11:04:19;;;;;;;1.02;0.50;;;20.50;55.90;;;;;;5052477;28;20036;-52
2022/11/16 11:06:50;;;;;;;0.55;0.10;;;20.50;55.90;;;;;;5089100;28;20082;-54
2022/11/16 11:09:25;;;;;;;2.00;0.00;;;20.60;55.80;;;;;;5090181;28;20043;-54
2022/11/16 11:15:00;;;;;;;2.90;0.17;;;20.60;55.70;;;;;;5069804;28;20528;-55
2022/11/16 11:17:28;;;;;;;0.90;0.10;;;20.60;55.60;;;;;;5070055;28;20064;-56
2022/11/16 11:20:00;;;;;;;2.40;0.40;;;20.60;55.50;;;;;;5069827;28;20056;-53
2022/11/16 11:22:27;;;;;;;0.47;0.03;;;20.70;55.50;;;;;;5069856;28;20413;-54
2022/11/16 11:24:56;;;;;;;2.75;0.40;;;20.60;55.40;;;;;;5069694;28;20048;-52
2022/11/16 11:27:26;;;;;;;1.00;0.43;;;20.70;55.30;;;;;;5069670;28;20566;-54
2022/11/16 11:29:57;;;;;;;3.10;0.20;;;20.70;55.10;;;;;;5069807;28;20109;-55
2022/11/16 11:32:30;;;;;;;2.35;0.60;;;20.70;55.00;;;;;;5051492;28;20044;-53
2022/11/16 11:34:58;;;;;;;0.88;0.10;;;20.80;55.10;;;;;;5082692;28;20393;-53
2022/11/16 11:37:29;;;;;;;3.60;0.28;;;20.80;55.00;;;;;;5110057;28;20092;-56
2022/11/16 11:40:23;;;;;;;2.40;0.40;;;20.80;55.00;;;;;;5110170;28;20043;-54
2022/11/16 11:42:55;;;;;;;0.25;0.10;;;20.80;54.90;;;;;;5086337;28;20079;-55
2022/11/16 11:45:32;;;;;;;1.13;0.10;;;20.80;54.90;;;;;;5109974;28;20048;-53
2022/11/16 11:48:01;;;;;;;1.80;0.05;;;20.80;54.80;;;;;;5109658;28;20101;-54
2022/11/16 11:50:43;;;;;;;0.63;0.10;;;20.80;54.70;;;;;;5109935;28;20130;-52
2022/11/16 11:53:22;;;;;;;3.28;0.22;;;20.90;54.60;;;;;;5087987;28;20077;-53
2022/11/16 11:55:55;;;;;;;0.93;0.10;;;20.90;54.50;;;;;;5089588;28;20066;-56
2022/11/16 11:58:29;;;;;;;3.58;0.47;;;20.90;54.40;;;;;;5089595;28;20070;-54
2022/11/16 12:01:15;;;;;;;2.00;0.10;;;20.90;54.30;;;;;;5089182;28;20040;-54
2022/11/16 12:04:05;;;;;;;2.45;0.20;;;20.90;54.20;;;;;;5089092;28;20048;-55
2022/11/16 12:06:37;;;;;;;2.42;0.10;;;21.00;54.70;;;;;;5089524;28;20040;-51
2022/11/16 12:09:24;;;;;;;2.15;0.10;;;20.90;54.10;;;;;;5089422;28;20117;-54
2022/11/16 12:12:03;;;;;;;3.47;0.10;;;21.00;54.00;;;;;;5089111;28;20491;-53
2022/11/16 12:14:48;;;;;;;6.07;0.47;;;21.00;53.90;;;;;;5089181;28;20113;-56
2022/11/16 12:17:24;;;;;;;2.92;0.80;;;21.00;53.80;;;;;;5088753;28;20409;-57
2022/11/16 12:20:16;;;;;;;1.75;0.17;;;21.00;53.80;;;;;;5088927;28;20044;-55
2022/11/16 12:23:08;;;;;;;2.42;0.10;;;21.00;53.60;;;;;;5088860;28;20043;-56
2022/11/16 12:25:45;;;;;;;5.28;0.30;;;21.00;53.60;;;;;;5088494;28;20159;-57
2022/11/16 12:28:32;;;;;;;0.85;0.20;;;21.00;53.50;;;;;;5089108;28;20032;-56
2022/11/16 12:31:15;;;;;;;1.27;0.20;;;21.00;53.50;;;;;;5088771;28;20589;-56
2022/11/16 12:33:49;;;;;;;2.10;0.75;;;21.00;53.40;;;;;;5088909;28;20040;-55
2022/11/16 12:36:29;;;;;;;1.65;0.38;;;21.00;53.40;;;;;;5088772;28;20080;-53
2022/11/16 12:39:09;;;;;;;3.25;0.65;;;21.10;53.90;;;;;;5088555;28;20064;-51
2022/11/16 12:42:05;;;;;;;6.10;0.30;;;21.10;53.30;;;;;;5051277;28;20124;-55
2022/11/16 12:45:05;;;;;;;3.35;0.25;;;21.10;53.10;;;;;;5068383;28;20787;-51
2022/11/16 12:47:42;;;;;;;2.60;0.25;;;21.10;53.10;;;;;;5068280;28;20045;-50
2022/11/16 12:50:25;;;;;;;1.45;0.25;;;21.10;53.10;;;;;;5068460;28;20063;-51
2022/11/16 12:53:05;;;;;;;3.22;0.15;;;21.10;53.00;;;;;;5084117;28;20089;-51
2022/11/16 12:55:43;;;;;;;2.50;0.20;;;21.10;53.00;;;;;;5088274;28;20050;-53
2022/11/16 12:58:22;;;;;;;1.35;0.10;;;21.10;52.90;;;;;;5088562;28;20044;-53
2022/11/16 13:01:01;;;;;;;1.80;0.20;;;21.10;52.80;;;;;;5088024;28;20508;-56
2022/11/16 13:03:35;;;;;;;3.72;0.70;;;21.10;52.70;;;;;;5088503;28;20046;-55
2022/11/16 13:06:06;;;;;;;6.47;0.20;;;21.10;52.50;;;;;;5069552;28;20055;-54
2022/11/16 13:08:43;;;;;;;3.30;0.20;;;21.10;52.30;;;;;;5088253;28;20044;-55
2022/11/16 13:11:16;;;;;;;4.70;0.17;;;21.10;52.20;;;;;;5088111;28;20146;-55
2022/11/16 13:13:44;;;;;;;2.25;0.35;;;21.10;52.10;;;;;;5088536;28;20048;-54
2022/11/16 13:16:16;;;;;;;5.75;0.38;;;21.10;52.10;;;;;;5088008;28;20040;-55
2022/11/16 13:18:44;;;;;;;2.10;0.47;;;21.10;52.10;;;;;;5088439;28;20127;-53
2022/11/16 13:21:33;;;;;;;2.30;0.40;;;21.10;52.10;;;;;;5088800;28;20044;-55
2022/11/16 13:24:11;;;;;;;2.63;0.80;;;21.10;52.00;;;;;;5088438;28;20071;-55
2022/11/16 13:26:44;;;;;;;2.03;0.10;;;21.10;52.00;;;;;;5088672;28;20135;-54
2022/11/16 13:29:21;;;;;;;1.50;0.20;;;21.10;52.00;;;;;;5077925;28;20040;-55
2022/11/16 13:31:54;;;;;;;5.38;0.10;;;21.10;52.00;;;;;;5067798;28;20054;-55
2022/11/16 13:34:25;;;;;;;3.05;0.10;;;21.10;52.00;;;;;;5083153;28;20073;-57
2022/11/16 13:36:53;;;;;;;1.85;0.10;;;21.00;51.90;;;;;;5067891;28;20463;-53
2022/11/16 13:39:21;;;;;;;1.10;0.20;;;21.00;52.00;;;;;;5071076;28;20158;-56
2022/11/16 13:41:50;;;;;;;1.60;0.20;;;21.00;51.90;;;;;;5072069;28;20049;-52
2022/11/16 13:44:28;;;;;;;2.85;0.40;;;21.00;52.00;;;;;;5071414;28;20056;-53
2022/11/16 13:47:03;;;;;;;3.22;1.00;;;21.10;52.00;;;;;;5071746;28;20044;-54
2022/11/16 13:49:34;;;;;;;5.10;0.40;;;21.10;52.00;;;;;;5071536;28;20036;-55
2022/11/16 13:52:03;;;;;;;2.25;0.20;;;21.00;52.00;;;;;;5080701;28;20089;-53
2022/11/16 13:54:33;;;;;;;1.83;0.10;;;21.00;52.50;;;;;;5091387;28;20048;-53
2022/11/16 13:57:03;;;;;;;0.35;0.10;;;21.00;52.00;;;;;;5091653;28;20048;-54